Time;durP1;ratioP1;P1;durP2;ratioP2;P2;SDS_P1;SDS_P2;PMS_P1;PMS_P2;Temp;Humidity;BMP_temperature;BMP_pressure;BME280_temperature;BME280_humidity;BME280_pressure;Samples;Min_cycle;Max_cycle;Signal;HPM_P1;HPM_P2
2023/07/27 00:01:22;;;;;;;11.63;10.47;;;;;;;23.40;69.28;94162.88;5033083;28;20779;-82
2023/07/27 00:03:49;;;;;;;11.00;9.90;;;;;;;23.47;70.36;94172.47;5032915;28;20444;-81
2023/07/27 00:06:16;;;;;;;10.10;9.10;;;;;;;23.37;68.15;94158.78;5032989;28;20487;-81
2023/07/27 00:08:45;;;;;;;10.30;9.30;;;;;;;23.06;69.72;94169.69;5032824;28;20440;-81
2023/07/27 00:11:12;;;;;;;12.30;10.03;;;;;;;23.04;71.76;94171.78;5033189;28;20419;-82
2023/07/27 00:13:39;;;;;;;10.70;9.60;;;;;;;22.99;70.95;94177.00;5032607;28;20460;-82
2023/07/27 00:16:06;;;;;;;10.40;9.40;;;;;;;22.88;71.56;94188.44;5033260;28;20449;-82
2023/07/27 00:18:34;;;;;;;11.20;10.10;;;;;;;22.86;71.74;94194.84;5036455;28;20435;-82
2023/07/27 00:21:01;;;;;;;12.93;9.90;;;;;;;22.74;72.82;94198.44;5036826;28;20439;-82
2023/07/27 00:23:28;;;;;;;11.20;10.10;;;;;;;22.88;72.40;94196.47;5036324;28;20439;-82
2023/07/27 00:25:55;;;;;;;10.10;9.10;;;;;;;22.82;70.50;94196.28;5001567;28;20490;-81
2023/07/27 00:28:21;;;;;;;9.33;8.33;;;;;;;22.95;72.62;94192.69;5036212;28;20442;-82
2023/07/27 00:30:54;;;;;;;9.07;8.20;;;;;;;23.14;69.06;94196.19;5017813;28;20844;-82
2023/07/27 00:33:22;;;;;;;8.33;7.40;;;;;;;22.96;66.71;94193.50;5036039;28;20447;-81
2023/07/27 00:35:57;;;;;;;9.40;7.53;;;;;;;22.53;68.55;94179.06;5035989;28;20455;-82
2023/07/27 00:38:24;;;;;;;9.07;8.17;;;;;;;22.43;68.53;94175.28;5036094;28;20434;-82
2023/07/27 00:40:51;;;;;;;7.13;6.53;;;;;;;22.35;69.95;94194.28;5036164;28;20457;-82
2023/07/27 00:43:17;;;;;;;8.90;8.00;;;;;;;22.73;70.71;94200.28;5036242;28;20431;-82
2023/07/27 00:45:44;;;;;;;6.87;6.17;;;;;;;23.34;69.03;94198.59;5036149;28;20471;-82
2023/07/27 00:48:11;;;;;;;7.80;7.10;;;;;;;23.71;66.85;94191.34;5035928;28;20795;-82
2023/07/27 00:57:23;;;;;;;7.17;6.47;;;;;;;22.97;64.72;94179.06;5034450;28;20506;-81
2023/07/27 00:59:51;;;;;;;9.43;6.77;;;;;;;22.50;66.82;94184.06;5036081;28;20441;-82
2023/07/27 01:02:18;;;;;;;6.60;5.97;;;;;;;22.31;67.98;94180.53;5035489;28;20449;-82
2023/07/27 01:04:45;;;;;;;7.93;6.30;;;;;;;21.73;70.04;94158.56;5035683;28;20533;-82
2023/07/27 01:07:19;;;;;;;7.30;6.60;;;;;;;21.68;71.37;94180.56;5035598;28;20470;-81
2023/07/27 01:10:07;;;;;;;6.93;6.13;;;;;;;21.55;70.33;94178.81;5053541;28;20484;-81
2023/07/27 01:16:00;;;;;;;4.80;4.40;;;;;;;21.51;69.40;94174.13;5052721;28;20424;-81
2023/07/27 01:18:37;;;;;;;8.33;5.47;;;;;;;21.42;71.12;94186.91;5053177;28;20467;-81
2023/07/27 01:21:14;;;;;;;6.20;5.67;;;;;;;21.38;69.84;94185.66;5052933;28;20433;-82
2023/07/27 01:24:16;;;;;;;5.43;4.93;;;;;;;21.50;72.09;94183.97;5053270;28;20440;-81
2023/07/27 01:27:15;;;;;;;9.10;4.70;;;;;;;21.67;69.50;94184.25;5052821;28;20492;-81
2023/07/27 01:30:09;;;;;;;4.13;3.73;;;;;;;21.31;68.82;94179.56;4973448;28;20469;-82
2023/07/27 01:32:41;;;;;;;4.33;3.93;;;;;;;21.20;69.64;94174.88;4974088;28;21093;-81
2023/07/27 01:35:13;;;;;;;4.43;3.93;;;;;;;20.90;69.92;94186.06;4974303;28;20460;-82
2023/07/27 01:37:42;;;;;;;3.63;3.33;;;;;;;20.77;69.53;94183.41;4974185;28;20444;-81
2023/07/27 01:40:13;;;;;;;3.97;3.67;;;;;;;20.69;70.97;94186.31;4974228;28;20932;-81
2023/07/27 01:42:41;;;;;;;5.83;3.40;;;;;;;20.62;69.88;94178.34;4974349;28;20905;-81
2023/07/27 01:45:10;;;;;;;11.13;3.70;;;;;;;20.50;70.62;94166.69;4974070;28;20437;-81
2023/07/27 01:47:47;;;;;;;6.67;4.33;;;;;;;20.57;71.23;94196.81;4974126;28;20462;-81
2023/07/27 01:50:18;;;;;;;4.40;4.10;;;;;;;20.53;70.62;94202.75;4989583;28;20450;-81
2023/07/27 01:52:47;;;;;;;4.40;4.00;;;;;;;20.95;71.84;94196.09;4974089;28;20448;-82
2023/07/27 01:55:16;;;;;;;4.97;4.57;;;;;;;21.10;68.46;94201.97;4974039;28;20437;-81
2023/07/27 01:57:44;;;;;;;4.00;3.70;;;;;;;21.07;69.98;94190.91;4976043;28;20923;-81
2023/07/27 02:00:13;;;;;;;5.67;4.60;;;;;;;20.82;68.47;94196.97;4978459;28;20455;-81
2023/07/27 02:02:40;;;;;;;4.37;4.07;;;;;;;20.87;70.87;94212.34;4980008;28;20455;-81
2023/07/27 02:05:10;;;;;;;4.97;4.57;;;;;;;20.85;69.46;94214.41;4979163;28;20452;-82
2023/07/27 02:07:37;;;;;;;4.50;4.10;;;;;;;20.71;70.40;94217.09;5031568;28;20965;-82
2023/07/27 02:10:07;;;;;;;4.50;4.10;;;;;;;20.90;70.79;94226.06;5035322;28;20434;-81
2023/07/27 02:12:41;;;;;;;8.23;5.13;;;;;;;20.87;69.29;94225.69;5016074;28;20955;-82
2023/07/27 02:18:31;;;;;;;5.00;4.60;;;;;;;21.01;72.33;94236.09;5033747;28;20428;-82
2023/07/27 02:21:01;;;;;;;5.37;4.97;;;;;;;21.09;68.27;94234.22;5034601;28;20445;-81
2023/07/27 02:23:29;;;;;;;6.73;6.23;;;;;;;20.94;68.85;94251.28;5016140;28;20449;-81
2023/07/27 02:25:58;;;;;;;6.07;5.63;;;;;;;20.56;71.27;94250.34;5033784;28;20496;-82
2023/07/27 02:28:28;;;;;;;6.80;6.20;;;;;;;20.73;69.64;94271.03;5034330;28;20441;-82
2023/07/27 02:30:55;;;;;;;7.47;6.77;;;;;;;20.55;70.15;94262.03;5034089;28;20889;-82
2023/07/27 02:33:22;;;;;;;6.23;5.73;;;;;;;20.64;71.63;94276.78;5033665;28;20427;-81
2023/07/27 02:35:49;;;;;;;7.10;6.60;;;;;;;20.79;71.96;94277.38;5033685;28;20442;-82
2023/07/27 02:38:17;;;;;;;8.57;7.97;;;;;;;20.63;69.91;94272.47;5034039;28;20542;-82
2023/07/27 02:40:44;;;;;;;7.77;7.07;;;;;;;20.46;71.04;94280.06;5033814;28;20437;-81
2023/07/27 02:43:11;;;;;;;8.90;8.10;;;;;;;20.44;71.83;94273.31;5033856;28;20433;-82
2023/07/27 02:45:40;;;;;;;6.80;6.30;;;;;;;20.67;72.80;94281.69;5033825;28;20450;-82
2023/07/27 02:48:07;;;;;;;9.77;8.90;;;;;;;20.73;70.65;94291.53;5000211;28;20846;-82
2023/07/27 02:50:34;;;;;;;9.47;8.67;;;;;;;20.78;69.65;94285.56;5034102;28;20456;-82
2023/07/27 02:53:01;;;;;;;9.10;8.30;;;;;;;20.76;70.54;94299.13;5033775;28;20436;-81
2023/07/27 02:55:29;;;;;;;8.60;7.90;;;;;;;20.90;72.49;94282.09;5033556;28;20449;-82
2023/07/27 02:57:56;;;;;;;7.27;6.73;;;;;;;21.00;71.31;94287.81;5033404;28;20923;-82
2023/07/27 03:00:22;;;;;;;9.10;8.20;;;;;;;20.92;70.20;94285.38;5033678;28;20430;-81
2023/07/27 03:02:49;;;;;;;9.63;8.13;;;;;;;20.65;68.23;94297.09;5033471;28;20438;-81
2023/07/27 03:05:16;;;;;;;8.50;7.07;;;;;;;20.54;69.16;94295.06;5033385;28;20437;-82
2023/07/27 03:11:06;;;;;;;8.27;7.50;;;;;;;20.35;68.19;94316.13;5032711;28;20940;-78
2023/07/27 03:13:33;;;;;;;8.40;7.60;;;;;;;20.14;70.52;94318.97;5033448;28;20448;-78
2023/07/27 03:16:03;;;;;;;9.77;8.83;;;;;;;20.05;69.28;94322.84;5033271;28;20453;-78
2023/07/27 03:18:30;;;;;;;8.03;7.33;;;;;;;19.84;70.04;94329.13;5033251;28;20925;-78
2023/07/27 03:20:57;;;;;;;10.25;9.45;;;;;;;19.83;70.03;94329.34;5031790;28;20445;-78
2023/07/27 03:23:24;;;;;;;12.13;9.13;;;;;;;19.81;69.84;94337.53;5033684;28;20592;-78
2023/07/27 03:25:51;;;;;;;10.00;9.00;;;;;;;19.47;69.67;94336.53;5033578;28;20475;-77
2023/07/27 03:28:19;;;;;;;10.10;9.20;;;;;;;19.34;70.44;94338.31;5014814;28;20522;-78
2023/07/27 03:30:46;;;;;;;12.60;10.07;;;;;;;19.23;69.64;94346.84;5033287;28;20847;-78
2023/07/27 03:33:12;;;;;;;9.70;8.90;;;;;;;19.10;69.98;94335.13;5033418;28;20457;-79
2023/07/27 03:35:39;;;;;;;8.93;8.20;;;;;;;19.07;69.69;94326.69;5033157;28;20439;-78
2023/07/27 03:38:06;;;;;;;8.73;8.00;;;;;;;19.00;69.12;94328.50;5014773;28;20453;-78
2023/07/27 03:40:33;;;;;;;9.27;8.37;;;;;;;19.06;69.46;94335.69;5014706;28;20455;-78
2023/07/27 03:43:01;;;;;;;10.03;9.13;;;;;;;19.17;69.10;94337.81;5014709;28;20501;-77
2023/07/27 03:45:29;;;;;;;9.63;8.63;;;;;;;19.24;68.35;94343.19;5033261;28;20431;-77
2023/07/27 03:47:56;;;;;;;8.67;7.87;;;;;;;19.26;66.64;94333.16;5033181;28;20495;-78
2023/07/27 03:50:23;;;;;;;8.23;7.50;;;;;;;19.17;66.26;94340.50;5014767;28;20449;-78
2023/07/27 03:52:50;;;;;;;8.07;7.47;;;;;;;19.16;66.08;94345.00;5018162;28;20929;-78
2023/07/27 03:55:18;;;;;;;7.90;7.20;;;;;;;19.15;65.46;94340.69;5037368;28;20454;-78
2023/07/27 03:57:46;;;;;;;8.10;7.40;;;;;;;19.14;65.85;94346.19;5037149;28;20451;-79
2023/07/27 04:00:14;;;;;;;7.77;7.13;;;;;;;19.07;65.62;94366.59;5002196;28;20455;-77
2023/07/27 04:02:42;;;;;;;7.07;6.57;;;;;;;18.95;66.35;94357.53;5018437;28;20446;-77
2023/07/27 04:05:09;;;;;;;7.13;6.43;;;;;;;19.10;65.13;94356.41;5001161;28;20441;-77
2023/07/27 04:07:36;;;;;;;7.50;6.80;;;;;;;19.22;64.52;94356.69;5016662;28;20484;-78
2023/07/27 04:10:03;;;;;;;7.97;7.17;;;;;;;19.29;66.50;94376.16;5017165;28;20448;-77
2023/07/27 04:12:29;;;;;;;6.77;6.20;;;;;;;19.57;65.76;94372.66;5016566;28;20462;-78
2023/07/27 04:14:56;;;;;;;12.80;6.97;;;;;;;19.76;62.77;94372.75;5019012;28;20432;-78
2023/07/27 04:17:23;;;;;;;6.07;5.50;;;;;;;19.89;62.21;94381.78;5037285;28;20813;-77
2023/07/27 04:19:52;;;;;;;6.20;5.70;;;;;;;20.24;62.89;94388.69;5036610;28;20439;-80
2023/07/27 04:22:18;;;;;;;5.40;4.90;;;;;;;20.39;59.24;94373.31;5036659;28;20456;-80
2023/07/27 04:24:45;;;;;;;5.23;4.83;;;;;;;20.04;58.22;94391.28;5036195;28;20440;-80
2023/07/27 04:27:12;;;;;;;6.07;4.53;;;;;;;19.82;59.54;94386.28;5036348;28;20479;-78
2023/07/27 04:29:39;;;;;;;18.60;15.10;;;;;;;19.65;60.74;94381.28;5035684;28;20973;-79
2023/07/27 04:32:06;;;;;;;5.53;4.80;;;;;;;19.60;60.44;94394.34;5036319;28;20890;-79
2023/07/27 04:34:33;;;;;;;4.70;4.30;;;;;;;19.40;61.08;94396.09;5036719;28;20431;-80
2023/07/27 04:37:01;;;;;;;5.27;4.90;;;;;;;19.28;62.55;94416.25;5036384;28;20440;-79
2023/07/27 04:39:28;;;;;;;4.57;4.27;;;;;;;19.09;61.61;94413.28;5036436;28;20445;-78
2023/07/27 04:41:55;;;;;;;5.03;4.70;;;;;;;18.98;63.21;94418.28;5036039;28;20446;-78
2023/07/27 04:44:22;;;;;;;4.27;3.97;;;;;;;19.04;63.63;94431.63;5036168;28;20813;-77
2023/07/27 04:46:49;;;;;;;16.53;4.30;;;;;;;19.00;62.70;94433.03;5036795;28;20541;-78
2023/07/27 04:49:15;;;;;;;5.40;4.87;;;;;;;18.92;62.75;94427.88;5055508;28;20444;-78
2023/07/27 04:51:42;;;;;;;4.13;3.83;;;;;;;18.79;62.27;94438.38;5037967;28;20444;-79
2023/07/27 04:54:11;;;;;;;4.53;4.23;;;;;;;18.75;63.06;94445.09;5055593;28;20427;-78
2023/07/27 04:56:39;;;;;;;4.93;4.53;;;;;;;18.70;63.11;94442.19;5036198;28;20450;-78
2023/07/27 04:59:06;;;;;;;4.53;4.13;;;;;;;18.81;62.96;94442.50;5036152;28;20451;-79
2023/07/27 05:01:34;;;;;;;4.77;4.37;;;;;;;18.71;63.40;94451.81;5035900;28;20446;-78
2023/07/27 05:04:01;;;;;;;4.30;4.00;;;;;;;18.65;67.06;94450.72;5051010;28;20510;-78
2023/07/27 05:06:28;;;;;;;5.43;5.03;;;;;;;18.55;62.77;94443.06;5055651;28;20445;-78
2023/07/27 05:08:57;;;;;;;5.10;4.60;;;;;;;18.61;64.11;94462.72;5042515;28;20438;-78
2023/07/27 05:11:25;;;;;;;8.67;4.40;;;;;;;18.52;62.84;94462.03;5016089;28;20464;-78
2023/07/27 05:13:52;;;;;;;8.90;4.50;;;;;;;18.43;64.62;94460.50;5015993;28;20445;-78
2023/07/27 05:16:19;;;;;;;9.90;5.23;;;;;;;18.36;67.01;94464.09;5035394;28;20453;-77
2023/07/27 05:18:46;;;;;;;3.83;3.53;;;;;;;18.38;66.67;94446.97;5035555;28;20459;-78
2023/07/27 05:21:15;;;;;;;5.90;4.60;;;;;;;18.39;66.00;94463.72;5015663;28;20452;-78
2023/07/27 05:23:42;;;;;;;5.77;5.17;;;;;;;18.33;64.62;94460.00;5015578;28;20451;-77
2023/07/27 05:26:09;;;;;;;4.70;4.40;;;;;;;18.31;63.71;94440.75;4997151;28;20455;-78
2023/07/27 05:28:37;;;;;;;4.90;4.50;;;;;;;18.25;64.09;94462.75;5031500;28;20505;-78
2023/07/27 05:31:04;;;;;;;4.90;4.50;;;;;;;18.40;65.08;94460.88;5034165;28;20829;-78
2023/07/27 05:33:30;;;;;;;5.20;4.53;;;;;;;18.41;63.40;94470.50;5034133;28;20450;-78
2023/07/27 05:35:57;;;;;;;9.23;4.40;;;;;;;18.35;62.70;94473.06;5033989;28;20457;-77
2023/07/27 05:38:24;;;;;;;5.50;5.00;;;;;;;18.49;64.71;94472.19;5033940;28;20446;-78
2023/07/27 05:40:51;;;;;;;5.30;4.90;;;;;;;18.46;62.14;94483.19;5047968;28;20461;-78
2023/07/27 05:43:17;;;;;;;5.37;4.90;;;;;;;18.44;63.67;94472.75;5014985;28;20439;-78
2023/07/27 05:45:53;;;;;;;5.83;4.70;;;;;;;18.46;62.88;94483.19;5033437;28;20453;-77
2023/07/27 05:48:20;;;;;;;4.57;4.27;;;;;;;18.34;62.30;94484.72;5014649;28;20475;-77
2023/07/27 05:50:47;;;;;;;4.57;4.27;;;;;;;18.34;62.58;94496.16;5033700;28;20447;-78
2023/07/27 05:53:13;;;;;;;6.53;4.27;;;;;;;18.40;63.10;94497.25;5033645;28;20451;-77
2023/07/27 05:55:40;;;;;;;6.53;5.10;;;;;;;18.41;62.15;94497.06;5033785;28;20443;-77
2023/07/27 05:58:07;;;;;;;5.57;5.07;;;;;;;18.52;63.56;94506.38;5036368;28;20445;-78
2023/07/27 06:00:34;;;;;;;4.77;4.47;;;;;;;18.58;62.71;94506.44;5035405;28;20529;-77
2023/07/27 06:03:02;;;;;;;5.70;5.30;;;;;;;18.57;61.79;94520.75;5033344;28;20483;-77
2023/07/27 06:05:29;;;;;;;4.83;4.53;;;;;;;18.69;62.54;94514.97;5033448;28;20447;-78
2023/07/27 06:07:56;;;;;;;4.23;4.00;;;;;;;18.71;62.10;94521.72;5033155;28;20490;-78
2023/07/27 06:10:22;;;;;;;5.17;4.77;;;;;;;18.69;63.07;94515.78;5033107;28;20451;-78
2023/07/27 06:12:49;;;;;;;14.73;5.03;;;;;;;18.68;61.49;94526.59;5032743;28;20460;-78
2023/07/27 06:15:16;;;;;;;5.13;4.73;;;;;;;18.52;61.77;94533.78;5032260;28;20446;-77
2023/07/27 06:17:43;;;;;;;6.00;4.73;;;;;;;18.44;60.50;94533.88;5014255;28;20962;-77
2023/07/27 06:20:11;;;;;;;6.63;4.70;;;;;;;18.52;62.20;94539.09;5014249;28;20449;-77
2023/07/27 06:22:38;;;;;;;5.00;4.60;;;;;;;18.52;61.09;94541.75;5032959;28;20451;-78
2023/07/27 06:25:06;;;;;;;5.07;4.50;;;;;;;18.49;59.73;94533.31;5032708;28;20442;-78
2023/07/27 06:27:32;;;;;;;4.50;4.13;;;;;;;18.49;60.46;94536.78;5032561;28;21159;-78
2023/07/27 06:29:59;;;;;;;4.67;4.27;;;;;;;18.50;59.89;94537.59;5032448;28;20842;-78
2023/07/27 06:32:26;;;;;;;4.33;4.03;;;;;;;18.54;59.94;94547.72;5032638;28;20475;-78
2023/07/27 06:34:53;;;;;;;4.10;3.80;;;;;;;18.68;59.15;94534.59;5032575;28;20461;-78
2023/07/27 06:37:21;;;;;;;4.10;3.80;;;;;;;18.90;58.65;94524.78;5030329;28;20443;-78
2023/07/27 06:39:48;;;;;;;6.40;4.37;;;;;;;19.17;57.31;94516.88;5032547;28;20478;-78
2023/07/27 06:42:14;;;;;;;3.93;3.70;;;;;;;19.64;56.59;94519.91;5032895;28;20480;-78
2023/07/27 06:44:42;;;;;;;7.43;4.00;;;;;;;20.26;54.89;94524.38;5032366;28;20812;-78
2023/07/27 06:47:09;;;;;;;5.80;3.90;;;;;;;20.45;52.82;94520.16;5032882;28;20792;-78
2023/07/27 06:49:35;;;;;;;3.30;3.00;;;;;;;20.40;53.03;94524.25;5032517;28;20452;-77
2023/07/27 06:52:02;;;;;;;7.33;3.80;;;;;;;20.31;52.83;94520.09;5032507;28;20455;-77
2023/07/27 06:54:32;;;;;;;3.50;3.20;;;;;;;20.28;52.57;94517.81;5032213;28;20453;-78
2023/07/27 06:56:59;;;;;;;3.50;3.30;;;;;;;20.41;54.11;94514.41;5032498;28;20457;-77
2023/07/27 06:59:26;;;;;;;4.07;3.80;;;;;;;20.56;51.89;94516.94;5032278;28;20441;-78
2023/07/27 07:01:54;;;;;;;4.03;3.73;;;;;;;20.88;51.16;94508.19;5032293;28;20787;-78
2023/07/27 07:04:20;;;;;;;3.80;2.90;;;;;;;21.44;48.93;94505.19;5032220;28;20454;-78
2023/07/27 07:06:48;;;;;;;3.10;2.90;;;;;;;21.93;48.02;94496.66;5032169;28;20454;-78
2023/07/27 07:09:14;;;;;;;4.57;2.80;;;;;;;22.46;46.85;94493.84;5030023;28;20440;-78
2023/07/27 07:11:45;;;;;;;4.07;2.93;;;;;;;22.77;44.40;94490.41;5032317;28;20502;-78
2023/07/27 07:14:14;;;;;;;2.87;2.63;;;;;;;23.08;44.07;94489.59;5031982;28;20442;-78
2023/07/27 07:16:40;;;;;;;6.60;2.97;;;;;;;23.31;43.19;94485.53;5032190;28;20479;-79
2023/07/27 07:19:07;;;;;;;3.50;2.80;;;;;;;23.41;43.24;94484.00;5031819;28;20448;-77
2023/07/27 07:21:34;;;;;;;2.80;2.60;;;;;;;23.64;42.52;94485.28;5032415;28;20445;-77
2023/07/27 07:24:03;;;;;;;4.83;2.47;;;;;;;23.97;42.51;94488.44;5032088;28;20456;-78
2023/07/27 07:26:30;;;;;;;5.20;3.20;;;;;;;24.03;43.83;94484.91;5033225;28;20446;-77
2023/07/27 07:28:58;;;;;;;3.23;3.03;;;;;;;23.94;42.08;94490.75;5036059;28;20580;-79
2023/07/27 07:31:24;;;;;;;3.43;2.67;;;;;;;23.99;41.67;94491.72;5035823;28;20482;-78
2023/07/27 07:33:51;;;;;;;3.20;2.97;;;;;;;23.84;41.20;94485.91;5035817;28;20445;-78
2023/07/27 07:36:18;;;;;;;3.30;3.00;;;;;;;23.89;41.55;94479.88;5035759;28;20445;-78
2023/07/27 07:38:45;;;;;;;2.90;2.70;;;;;;;23.74;41.77;94469.53;5035939;28;20457;-78
2023/07/27 07:41:12;;;;;;;3.53;3.03;;;;;;;23.72;43.26;94490.38;5035641;28;20452;-78
2023/07/27 07:43:41;;;;;;;3.50;2.73;;;;;;;23.73;41.84;94495.50;5035577;28;20858;-77
2023/07/27 07:46:12;;;;;;;3.37;2.90;;;;;;;23.54;42.16;94487.63;5035497;28;20798;-78
2023/07/27 07:48:38;;;;;;;3.13;2.70;;;;;;;23.65;42.08;94497.63;5035918;28;20840;-78
2023/07/27 07:51:10;;;;;;;3.50;3.03;;;;;;;23.52;41.93;94484.34;5017107;28;20497;-79
2023/07/27 07:53:37;;;;;;;3.73;2.60;;;;;;;23.75;41.99;94489.94;5035608;28;20460;-78
2023/07/27 07:56:04;;;;;;;3.20;3.00;;;;;;;23.58;42.26;94495.03;5035419;28;20484;-78
2023/07/27 07:58:31;;;;;;;5.13;2.80;;;;;;;23.56;41.93;94498.97;5035530;28;20907;-78
2023/07/27 08:00:58;;;;;;;4.00;3.27;;;;;;;23.51;42.09;94501.44;5035083;28;20453;-79
2023/07/27 08:03:26;;;;;;;3.97;2.97;;;;;;;23.47;41.84;94511.78;5035330;28;20491;-78
2023/07/27 08:05:53;;;;;;;8.33;3.00;;;;;;;23.48;41.60;94505.38;5035392;28;20490;-78
2023/07/27 08:08:20;;;;;;;3.03;2.83;;;;;;;23.51;41.35;94506.81;5035224;28;20493;-78
2023/07/27 08:10:47;;;;;;;3.27;2.97;;;;;;;23.55;41.94;94499.97;5035166;28;20462;-78
2023/07/27 08:13:14;;;;;;;3.70;3.40;;;;;;;23.65;41.19;94505.66;5035134;28;20468;-79
2023/07/27 08:15:41;;;;;;;3.10;2.90;;;;;;;23.68;41.85;94508.72;5035030;28;20457;-78
2023/07/27 08:18:07;;;;;;;7.10;3.10;;;;;;;23.81;42.07;94506.97;5035046;28;20946;-78
2023/07/27 08:20:37;;;;;;;2.90;2.20;;;;;;;23.93;40.82;94514.06;5035233;28;20444;-79
2023/07/27 08:23:03;;;;;;;5.30;3.10;;;;;;;23.95;42.00;94514.66;5035123;28;20456;-78
2023/07/27 08:25:31;;;;;;;3.70;3.40;;;;;;;24.15;40.27;94519.81;5016314;28;20446;-79
2023/07/27 08:27:58;;;;;;;3.30;3.10;;;;;;;24.06;40.27;94521.97;5035367;28;20538;-78
2023/07/27 08:30:25;;;;;;;3.17;2.97;;;;;;;23.98;40.62;94514.22;5034569;28;20464;-79
2023/07/27 08:32:53;;;;;;;3.37;3.10;;;;;;;23.95;40.26;94519.19;5035082;28;20475;-78
2023/07/27 08:35:19;;;;;;;3.50;3.30;;;;;;;23.79;40.29;94521.41;5034752;28;20476;-78
2023/07/27 08:37:48;;;;;;;5.73;2.80;;;;;;;23.80;40.86;94519.56;5034187;28;20518;-79
2023/07/27 08:40:14;;;;;;;3.10;2.90;;;;;;;23.79;40.96;94523.28;5034728;28;20810;-78
2023/07/27 08:42:43;;;;;;;5.10;2.87;;;;;;;23.62;40.93;94530.22;5034401;28;20440;-78
2023/07/27 08:45:13;;;;;;;3.60;3.30;;;;;;;23.63;40.63;94531.84;5034899;28;20449;-79
2023/07/27 08:47:42;;;;;;;6.17;2.93;;;;;;;23.49;40.19;94534.63;5034822;28;20505;-78
2023/07/27 08:50:09;;;;;;;8.00;3.43;;;;;;;23.54;41.11;94533.16;5034366;28;20933;-78
2023/07/27 08:52:45;;;;;;;3.50;2.80;;;;;;;23.68;40.27;94522.13;5034727;28;20453;-78
2023/07/27 08:55:13;;;;;;;4.33;3.10;;;;;;;23.54;41.20;94517.91;5032294;28;20450;-78
2023/07/27 08:57:40;;;;;;;4.53;3.10;;;;;;;23.62;41.26;94538.25;5034670;28;20439;-78
2023/07/27 09:00:09;;;;;;;6.10;3.10;;;;;;;23.79;41.36;94547.41;5034717;28;20460;-78
2023/07/27 09:02:38;;;;;;;6.80;2.80;;;;;;;23.66;41.10;94547.50;5048761;28;20444;-78
2023/07/27 09:05:06;;;;;;;4.70;2.87;;;;;;;23.62;41.17;94531.03;5015991;28;20442;-78
2023/07/27 09:07:33;;;;;;;5.30;3.23;;;;;;;23.61;41.16;94534.75;5034162;28;20454;-78
2023/07/27 09:10:07;;;;;;;5.77;3.03;;;;;;;23.46;41.70;94529.72;5015392;28;20445;-77
2023/07/27 09:12:35;;;;;;;8.97;2.60;;;;;;;23.35;41.82;94541.09;5034846;28;20821;-78
2023/07/27 09:15:10;;;;;;;2.93;2.57;;;;;;;23.32;41.86;94520.13;5034666;28;20441;-78
2023/07/27 09:17:37;;;;;;;8.13;3.20;;;;;;;23.37;42.07;94528.31;5048167;28;20479;-78
2023/07/27 09:20:08;;;;;;;3.77;2.50;;;;;;;23.30;41.79;94532.91;5036569;28;20820;-78
2023/07/27 09:22:36;;;;;;;4.40;2.80;;;;;;;23.36;41.19;94541.94;5036530;28;20877;-77
2023/07/27 09:25:03;;;;;;;2.47;2.20;;;;;;;23.40;41.92;94543.94;5034180;28;20450;-78
2023/07/27 09:27:43;;;;;;;4.20;2.40;;;;;;;23.43;42.19;94540.88;5033946;28;20445;-78
2023/07/27 09:30:11;;;;;;;2.90;2.70;;;;;;;23.74;42.69;94537.34;5034152;28;20484;-78
2023/07/27 09:32:38;;;;;;;4.17;2.40;;;;;;;23.70;42.63;94537.97;4998532;28;20590;-78
2023/07/27 09:35:06;;;;;;;8.33;3.23;;;;;;;23.79;41.91;94542.03;5033565;28;20449;-78
2023/07/27 09:37:33;;;;;;;2.83;2.63;;;;;;;23.98;41.54;94554.41;5033704;28;20481;-78
2023/07/27 09:40:09;;;;;;;3.93;2.70;;;;;;;23.80;40.28;94549.03;5033647;28;20454;-78
2023/07/27 09:42:36;;;;;;;2.50;2.30;;;;;;;23.58;40.93;94542.41;5033706;28;20483;-79
2023/07/27 09:45:05;;;;;;;12.33;2.77;;;;;;;23.35;42.57;94540.28;5033513;28;20451;-78
2023/07/27 09:47:32;;;;;;;6.77;2.90;;;;;;;23.34;42.53;94552.03;5033154;28;20468;-78
2023/07/27 09:50:00;;;;;;;3.03;2.40;;;;;;;23.34;42.43;94542.16;5032642;28;20495;-78
2023/07/27 09:52:28;;;;;;;3.00;2.43;;;;;;;23.41;41.67;94545.59;5033524;28;20474;-78
2023/07/27 09:54:56;;;;;;;4.90;2.80;;;;;;;23.50;42.42;94554.19;5033610;28;20456;-78
2023/07/27 09:57:24;;;;;;;3.87;2.43;;;;;;;23.41;42.12;94555.47;5033527;28;20434;-79
2023/07/27 09:59:51;;;;;;;3.43;3.03;;;;;;;23.49;42.72;94560.59;5033124;28;20837;-78
2023/07/27 10:02:21;;;;;;;6.73;3.50;;;;;;;23.56;41.73;94555.22;5033178;28;20448;-78
2023/07/27 10:04:50;;;;;;;3.60;3.30;;;;;;;23.37;41.66;94549.75;5033127;28;20444;-79
2023/07/27 10:07:17;;;;;;;7.50;3.70;;;;;;;23.23;42.12;94550.88;5033060;28;20458;-78
2023/07/27 10:09:44;;;;;;;3.63;3.17;;;;;;;23.08;41.92;94547.69;5033230;28;20599;-77
2023/07/27 10:12:11;;;;;;;3.20;3.00;;;;;;;23.06;44.81;94558.59;5048698;28;20986;-77
2023/07/27 10:14:40;;;;;;;17.03;3.53;;;;;;;23.20;42.04;94554.00;5033983;28;20962;-78
2023/07/27 10:17:08;;;;;;;3.20;2.63;;;;;;;23.42;41.51;94547.25;5034326;28;20797;-78
2023/07/27 10:19:44;;;;;;;3.20;3.00;;;;;;;23.48;43.53;94554.41;5033477;28;20456;-78
2023/07/27 10:22:13;;;;;;;3.50;3.20;;;;;;;23.41;42.46;94550.94;5033686;28;20463;-78
2023/07/27 10:24:48;;;;;;;3.60;3.40;;;;;;;23.44;41.37;94555.91;5034051;28;20471;-78
2023/07/27 10:27:16;;;;;;;2.90;2.70;;;;;;;23.57;40.78;94546.97;5034322;28;20441;-79
2023/07/27 10:29:47;;;;;;;3.33;2.73;;;;;;;23.66;40.57;94550.16;5033855;28;20535;-81
2023/07/27 10:32:14;;;;;;;3.88;2.97;;;;;;;23.66;40.29;94542.13;5032335;28;20449;-79
2023/07/27 10:34:43;;;;;;;3.80;2.37;;;;;;;23.65;39.81;94545.84;5033891;28;20218;-78
2023/07/27 10:37:11;;;;;;;2.90;2.70;;;;;;;23.63;39.66;94535.34;5033725;28;20448;-78
2023/07/27 10:39:47;;;;;;;7.57;3.57;;;;;;;23.66;38.76;94531.41;5033524;28;20448;-78
2023/07/27 10:42:15;;;;;;;3.10;2.90;;;;;;;23.64;38.98;94536.19;5015612;28;20468;-79
2023/07/27 10:44:46;;;;;;;6.67;3.20;;;;;;;23.67;39.11;94533.06;5033405;28;20444;-79
2023/07/27 10:47:14;;;;;;;3.00;2.80;;;;;;;23.64;40.49;94534.31;5033914;28;20441;-79
2023/07/27 11:21:04;;;;;;;3.60;3.40;;;;;;;23.88;40.60;94526.50;5089897;27;20950;-79
2023/07/27 11:23:31;;;;;;;3.90;3.50;;;;;;;23.88;38.98;94515.75;5089241;28;20448;-80
2023/07/27 11:25:58;;;;;;;3.77;3.47;;;;;;;23.82;39.45;94517.47;5090170;28;20559;-81
2023/07/27 11:28:26;;;;;;;4.07;3.50;;;;;;;23.81;39.58;94515.00;5053838;28;20928;-79
2023/07/27 11:30:53;;;;;;;3.77;3.43;;;;;;;23.84;39.73;94520.75;5089613;28;20807;-81
2023/07/27 11:33:25;;;;;;;5.43;3.93;;;;;;;24.06;43.72;94521.97;5089403;28;20443;-81
2023/07/27 16:46:42;;;;;;;4.50;4.10;;;;;;;23.91;38.49;94670.78;5131346;27;20360;-86
2023/07/27 16:49:09;;;;;;;4.10;3.80;;;;;;;23.67;38.54;94670.50;5131842;28;20198;-74
2023/07/27 16:51:36;;;;;;;3.93;3.63;;;;;;;23.58;38.03;94677.19;5130960;27;20447;-77
2023/07/27 16:54:03;;;;;;;7.80;4.17;;;;;;;23.47;38.66;94684.03;5131208;28;20914;-77
2023/07/27 16:56:30;;;;;;;4.70;4.10;;;;;;;23.15;39.74;94685.81;5117835;27;20476;-79
2023/07/27 16:58:57;;;;;;;11.63;4.47;;;;;;;22.85;40.15;94685.53;5131241;28;20448;-79
2023/07/27 17:01:23;;;;;;;3.80;3.50;;;;;;;22.57;40.40;94687.63;5131034;27;20439;-79
2023/07/27 17:03:52;;;;;;;4.33;4.03;;;;;;;22.49;40.60;94704.69;5131011;27;20999;-78
2023/07/27 17:06:19;;;;;;;3.67;3.47;;;;;;;22.37;40.91;94705.53;5110217;28;20499;-78
2023/07/27 17:08:46;;;;;;;4.17;3.70;;;;;;;22.32;41.85;94710.69;5123768;28;20925;-78
2023/07/27 17:11:13;;;;;;;6.10;4.00;;;;;;;22.22;41.67;94714.56;5130744;28;20922;-78
2023/07/27 17:13:40;;;;;;;4.70;3.83;;;;;;;22.80;43.67;94711.22;5133269;27;20500;-81
2023/07/27 17:16:08;;;;;;;4.93;3.70;;;;;;;23.11;41.74;94707.84;5131050;28;20444;-81
2023/07/27 17:18:37;;;;;;;4.37;3.97;;;;;;;23.12;39.87;94712.16;5131023;28;20519;-80
2023/07/27 17:21:07;;;;;;;4.63;3.37;;;;;;;23.09;39.61;94712.59;5131032;28;20451;-79
2023/07/27 17:23:35;;;;;;;4.00;3.70;;;;;;;23.10;43.08;94711.56;5099332;28;20443;-78
2023/07/27 17:26:03;;;;;;;5.03;3.00;;;;;;;23.14;42.06;94707.47;5129591;28;20840;-80
2023/07/27 17:28:31;;;;;;;3.33;3.13;;;;;;;23.64;40.86;94713.81;5098117;28;20444;-80
2023/07/27 17:30:59;;;;;;;3.73;3.43;;;;;;;23.55;41.20;94715.09;5127953;28;20477;-79
2023/07/27 17:33:28;;;;;;;3.40;3.20;;;;;;;23.27;40.69;94715.41;5111427;28;20435;-79
2023/07/27 17:35:56;;;;;;;3.70;3.40;;;;;;;23.28;42.25;94733.13;5130753;27;20440;-79